createdAt,value
2024-03-02T00:01:33.638Z,7.54
2024-03-02T00:04:35.961Z,7.53
2024-03-02T00:07:38.333Z,7.43
2024-03-02T00:10:42.136Z,7.33
2024-03-02T00:13:44.409Z,7.42
2024-03-02T00:16:46.677Z,7.52
2024-03-02T00:19:49.207Z,7.45
2024-03-02T00:22:51.745Z,7.52
2024-03-02T00:25:55.971Z,7.53
2024-03-02T00:28:58.635Z,7.50
2024-03-02T00:32:02.041Z,7.48
2024-03-02T00:35:06.225Z,7.52
2024-03-02T00:38:08.535Z,7.47
2024-03-02T00:41:18.494Z,7.56
2024-03-02T00:44:27.655Z,7.55
2024-03-02T00:47:29.939Z,7.50
2024-03-02T00:50:33.811Z,7.51
2024-03-02T00:53:36.035Z,7.48
2024-03-02T00:56:38.304Z,7.46
2024-03-02T00:59:40.611Z,7.42
2024-03-02T01:02:45.112Z,7.36
2024-03-02T01:05:47.301Z,7.34
2024-03-02T01:08:52.658Z,7.37
2024-03-02T01:11:55.434Z,7.37
2024-03-02T01:14:57.654Z,7.40
2024-03-02T01:17:59.877Z,7.45
2024-03-02T01:21:02.753Z,7.42
2024-03-02T01:24:05.284Z,7.46
2024-03-02T01:27:07.534Z,7.52
2024-03-02T01:30:10.205Z,7.55
2024-03-02T01:33:12.505Z,7.54
2024-03-02T01:36:14.765Z,7.38
2024-03-02T01:39:16.980Z,7.48
2024-03-02T01:42:19.379Z,7.34
2024-03-02T01:45:21.761Z,7.39
2024-03-02T01:48:24.019Z,7.47
2024-03-02T01:51:26.443Z,7.43
2024-03-02T01:54:28.836Z,7.39
2024-03-02T01:57:31.291Z,7.35
2024-03-02T02:00:33.731Z,7.37
2024-03-02T02:03:36.044Z,7.39
2024-03-02T02:06:38.365Z,7.45
2024-03-02T02:09:40.700Z,7.35
2024-03-02T02:12:43.047Z,7.24
2024-03-02T02:15:45.319Z,7.34
2024-03-02T02:18:47.578Z,7.37
2024-03-02T02:21:49.859Z,7.40
2024-03-02T02:24:52.160Z,7.49
2024-03-02T02:27:55.277Z,7.50
2024-03-02T02:30:57.772Z,7.45
2024-03-02T02:34:00.187Z,7.52
2024-03-02T02:37:02.652Z,7.48
2024-03-02T02:40:06.028Z,7.42
2024-03-02T02:43:08.260Z,7.26
2024-03-02T02:46:10.588Z,7.34
2024-03-02T02:49:12.855Z,7.41
2024-03-02T02:52:15.027Z,7.42
2024-03-02T02:55:17.406Z,7.39
2024-03-02T02:58:19.665Z,7.46
2024-03-02T03:01:21.900Z,7.45
2024-03-02T03:04:24.213Z,7.43
2024-03-02T03:07:26.358Z,7.41
2024-03-02T03:10:29.083Z,7.33
2024-03-02T03:13:35.339Z,7.38
2024-03-02T03:16:37.465Z,7.36
2024-03-02T03:19:39.936Z,7.32
2024-03-02T03:22:42.152Z,7.32
2024-03-02T03:25:44.802Z,7.27
2024-03-02T03:28:47.035Z,7.32
2024-03-02T03:31:49.198Z,7.31
2024-03-02T03:34:51.488Z,7.31
2024-03-02T03:37:53.772Z,7.34
2024-03-02T03:40:56.320Z,7.26
2024-03-02T03:43:58.617Z,7.21
2024-03-02T03:47:03.051Z,7.35
2024-03-02T03:50:08.260Z,7.41
2024-03-02T03:53:10.856Z,7.48
2024-03-02T03:56:13.055Z,7.40
2024-03-02T03:59:15.333Z,7.40
2024-03-02T04:02:17.576Z,7.31
2024-03-02T04:05:19.786Z,7.22
2024-03-02T04:08:21.992Z,7.34
2024-03-02T04:11:24.217Z,7.37
2024-03-02T04:14:26.544Z,7.31
2024-03-02T04:17:28.771Z,7.37
2024-03-02T04:20:31.226Z,7.38
2024-03-02T04:23:33.493Z,7.31
2024-03-02T04:26:35.775Z,7.35
2024-03-02T04:29:37.955Z,7.39
2024-03-02T04:32:40.198Z,7.42
2024-03-02T04:35:42.421Z,7.42
2024-03-02T04:38:44.736Z,7.48
2024-03-02T04:41:46.885Z,7.46
2024-03-02T04:44:49.574Z,7.35
2024-03-02T04:47:51.833Z,7.40
2024-03-02T04:50:54.017Z,7.38
2024-03-02T04:53:56.364Z,7.43
2024-03-02T04:56:59.407Z,7.42
2024-03-02T05:00:02.000Z,7.40
2024-03-02T05:03:04.414Z,7.36
2024-03-02T05:06:07.157Z,7.33
2024-03-02T05:09:12.399Z,7.33
2024-03-02T05:12:33.106Z,7.22
2024-03-02T05:15:35.324Z,7.28
2024-03-02T05:18:38.684Z,7.29
2024-03-02T05:21:40.930Z,7.29
2024-03-02T05:24:43.364Z,7.31
2024-03-02T05:27:47.525Z,7.33
2024-03-02T05:30:50.836Z,7.36
2024-03-02T05:33:57.288Z,7.39
2024-03-02T05:37:00.496Z,7.29
2024-03-02T05:40:02.791Z,7.33
2024-03-02T05:43:05.278Z,7.31
2024-03-02T05:46:07.504Z,7.25
2024-03-02T05:49:10.877Z,7.27
2024-03-02T05:52:13.578Z,7.10
2024-03-02T05:55:15.977Z,7.17
2024-03-02T05:58:38.381Z,7.21
2024-03-02T06:01:41.194Z,7.24
2024-03-02T06:04:43.515Z,7.31
2024-03-02T06:07:45.875Z,7.35
2024-03-02T06:10:48.266Z,7.40
2024-03-02T06:13:50.527Z,7.44
2024-03-02T06:16:52.732Z,7.33
2024-03-02T06:19:54.943Z,7.38
2024-03-02T06:22:57.155Z,7.48
2024-03-02T06:25:59.363Z,7.55
2024-03-02T06:29:03.398Z,7.61
2024-03-02T06:32:05.952Z,7.64
2024-03-02T06:35:11.115Z,7.67
2024-03-02T06:38:13.308Z,7.69
2024-03-02T06:41:15.519Z,7.71
2024-03-02T06:44:17.745Z,7.75
2024-03-02T06:47:21.495Z,7.73
2024-03-02T06:50:23.749Z,7.68
2024-03-02T06:53:26.124Z,7.79
2024-03-02T06:56:28.343Z,7.88
2024-03-02T06:59:30.539Z,7.90
2024-03-02T07:02:33.037Z,7.95
2024-03-02T07:05:35.387Z,7.97
2024-03-02T07:08:37.693Z,7.97
2024-03-02T07:11:39.928Z,8.02
2024-03-02T07:15:00.770Z,8.02
2024-03-02T07:18:03.067Z,8.14
2024-03-02T07:21:05.322Z,8.12
2024-03-02T07:24:10.249Z,8.23
2024-03-02T07:27:13.862Z,8.20
2024-03-02T07:30:17.694Z,8.23
2024-03-02T07:33:20.121Z,8.22
2024-03-02T07:36:22.308Z,8.24
2024-03-02T07:39:25.147Z,8.17
2024-03-02T07:42:27.421Z,8.22
2024-03-02T07:45:29.673Z,8.29
2024-03-02T07:48:32.299Z,8.36
2024-03-02T07:51:34.550Z,8.37
2024-03-02T07:54:37.518Z,8.40
2024-03-02T07:57:39.917Z,8.33
2024-03-02T08:00:42.391Z,8.44
2024-03-02T08:03:51.294Z,8.45
2024-03-02T08:06:53.695Z,8.31
2024-03-02T08:09:57.993Z,8.41
2024-03-02T08:13:00.358Z,8.25
2024-03-02T08:16:04.589Z,8.22
2024-03-02T08:19:06.857Z,8.22
2024-03-02T08:22:09.236Z,8.19
2024-03-02T08:25:11.889Z,8.14
2024-03-02T08:28:14.186Z,8.11
2024-03-02T08:31:16.403Z,8.13
2024-03-02T08:34:18.707Z,8.17
2024-03-02T08:37:20.872Z,8.09
2024-03-02T08:40:23.069Z,8.19
2024-03-02T08:43:26.135Z,8.19
2024-03-02T08:46:28.438Z,8.29
2024-03-02T08:49:36.157Z,8.33
2024-03-02T08:52:41.423Z,8.36
2024-03-02T08:55:43.596Z,8.42
2024-03-02T08:58:45.985Z,8.44
2024-03-02T09:01:48.210Z,8.49
2024-03-02T09:04:50.717Z,8.59
2024-03-02T09:07:52.870Z,8.76
2024-03-02T09:10:56.157Z,8.95
2024-03-02T09:13:58.876Z,8.94
2024-03-02T09:17:01.086Z,9.04
2024-03-02T09:20:05.142Z,9.19
2024-03-02T09:23:07.421Z,9.34
2024-03-02T09:26:09.675Z,9.20
2024-03-02T09:29:11.826Z,9.15
2024-03-02T09:32:15.573Z,9.20
2024-03-02T09:35:18.012Z,9.36
2024-03-02T09:38:20.240Z,9.17
2024-03-02T09:41:22.572Z,9.20
2024-03-02T09:44:26.227Z,9.31
2024-03-02T09:47:28.485Z,9.33
2024-03-02T09:50:30.762Z,9.30
2024-03-02T09:53:34.853Z,9.31
2024-03-02T09:56:37.324Z,9.16
2024-03-02T09:59:39.635Z,9.25
2024-03-02T10:02:42.836Z,9.31
2024-03-02T10:05:45.021Z,9.22
2024-03-02T10:08:47.271Z,9.17
2024-03-02T10:11:49.455Z,9.12
2024-03-02T10:15:04.605Z,9.00
2024-03-02T10:18:10.316Z,8.97
2024-03-02T10:21:16.314Z,8.96
2024-03-02T10:24:22.404Z,8.94
2024-03-02T10:27:27.553Z,8.91
2024-03-02T10:30:30.737Z,8.77
2024-03-02T10:33:33.014Z,8.85
2024-03-02T10:36:36.390Z,8.85
2024-03-02T10:39:41.357Z,8.72
2024-03-02T10:42:46.402Z,8.80
2024-03-02T10:45:51.794Z,8.77
2024-03-02T10:48:54.200Z,8.75
2024-03-02T10:51:56.558Z,8.71
2024-03-02T10:54:58.890Z,8.80
2024-03-02T10:58:03.401Z,8.71
2024-03-02T11:01:08.502Z,8.79
2024-03-02T11:04:16.562Z,8.89
2024-03-02T11:07:21.914Z,8.87
2024-03-02T11:10:26.664Z,8.89
2024-03-02T11:13:34.665Z,8.84
2024-03-02T11:16:39.659Z,8.89
2024-03-02T11:19:42.348Z,9.01
2024-03-02T11:22:45.454Z,8.86
2024-03-02T11:25:48.556Z,8.97
2024-03-02T11:28:50.778Z,8.95
2024-03-02T11:32:00.395Z,8.94
2024-03-02T11:35:03.502Z,8.93
2024-03-02T11:38:05.744Z,8.85
2024-03-02T11:41:10.034Z,8.93
2024-03-02T11:44:13.313Z,9.01
2024-03-02T11:47:17.126Z,9.06
2024-03-02T11:50:38.563Z,9.10
2024-03-02T11:53:41.658Z,9.15
2024-03-02T11:56:43.916Z,9.12
2024-03-02T11:59:46.817Z,9.17
2024-03-02T12:03:00.668Z,9.18
2024-03-02T12:06:03.678Z,9.04
2024-03-02T12:09:06.190Z,8.99
2024-03-02T12:12:10.236Z,8.98
2024-03-02T12:15:12.421Z,8.96
2024-03-02T12:18:14.663Z,8.94
2024-03-02T12:21:17.074Z,8.89
2024-03-02T12:24:19.600Z,8.86
2024-03-02T12:27:22.423Z,8.71
2024-03-02T12:30:25.212Z,8.76
2024-03-02T12:33:28.717Z,8.62
2024-03-02T12:36:39.295Z,8.60
2024-03-02T12:39:45.536Z,8.69
2024-03-02T12:42:48.129Z,8.62
2024-03-02T12:45:50.374Z,8.59
2024-03-02T12:48:52.816Z,8.61
2024-03-02T12:51:55.281Z,8.45
2024-03-02T12:55:00.563Z,8.35
2024-03-02T12:58:04.346Z,8.33
2024-03-02T13:01:10.612Z,8.31
2024-03-02T13:04:12.941Z,8.32
2024-03-02T13:07:15.154Z,8.25
2024-03-02T13:10:18.229Z,8.33
2024-03-02T13:13:20.470Z,8.36
2024-03-02T13:16:27.444Z,8.31
2024-03-02T13:19:35.685Z,8.31
2024-03-02T13:22:37.918Z,8.32
2024-03-02T13:25:40.081Z,8.37
2024-03-02T13:28:42.286Z,8.40
2024-03-02T13:31:44.873Z,8.38
2024-03-02T13:34:47.083Z,8.47
2024-03-02T13:37:51.214Z,8.43
2024-03-02T13:40:53.558Z,8.39
2024-03-02T13:43:55.735Z,8.43
2024-03-02T13:46:59.209Z,8.37
2024-03-02T13:50:03.033Z,8.34
2024-03-02T13:53:05.610Z,8.39
2024-03-02T13:56:08.090Z,8.29
2024-03-02T13:59:10.291Z,8.28
2024-03-02T14:02:13.669Z,8.31
2024-03-02T14:05:16.211Z,8.44
2024-03-02T14:08:18.980Z,8.61
2024-03-02T14:11:21.306Z,8.67
2024-03-02T14:14:24.097Z,8.56
2024-03-02T14:17:26.682Z,8.63
2024-03-02T14:20:28.936Z,8.55
2024-03-02T14:23:31.161Z,8.45
2024-03-02T14:26:34.281Z,8.38
2024-03-02T14:29:38.769Z,8.32
2024-03-02T14:32:41.143Z,8.33
2024-03-02T14:35:43.420Z,8.38
2024-03-02T14:39:01.239Z,8.17
2024-03-02T14:42:07.902Z,8.19
2024-03-02T14:45:10.461Z,8.20
2024-03-02T14:48:13.062Z,8.21
2024-03-02T14:51:15.503Z,8.03
2024-03-02T14:54:17.888Z,8.07
2024-03-02T14:57:20.180Z,8.09
2024-03-02T15:00:22.358Z,8.13
2024-03-02T15:03:24.693Z,8.16
2024-03-02T15:06:33.383Z,8.04
2024-03-02T15:09:36.827Z,7.93
2024-03-02T15:12:39.158Z,7.93
2024-03-02T15:15:42.172Z,8.01
2024-03-02T15:18:44.507Z,7.91
2024-03-02T15:21:46.882Z,7.91
2024-03-02T15:24:49.187Z,7.93
2024-03-02T15:27:51.601Z,7.85
2024-03-02T15:30:55.894Z,7.93
2024-03-02T15:34:00.287Z,7.94
2024-03-02T15:37:02.805Z,7.97
2024-03-02T15:40:09.777Z,7.99
2024-03-02T15:43:22.818Z,7.94
2024-03-02T15:46:25.072Z,8.04
2024-03-02T15:49:28.563Z,8.05
2024-03-02T15:52:31.487Z,8.09
2024-03-02T15:55:35.564Z,8.07
2024-03-02T15:58:39.279Z,8.06
2024-03-02T16:01:43.220Z,8.08
2024-03-02T16:04:45.641Z,8.05
2024-03-02T16:07:47.893Z,8.04
2024-03-02T16:10:52.324Z,8.05
2024-03-02T16:13:54.562Z,8.12
2024-03-02T16:17:00.943Z,8.09
2024-03-02T16:20:14.804Z,8.10
2024-03-02T16:23:17.046Z,8.05
2024-03-02T16:26:19.206Z,8.01
2024-03-02T16:29:21.317Z,8.02
2024-03-02T16:32:23.531Z,8.02
2024-03-02T16:35:26.076Z,7.91
2024-03-02T16:38:28.242Z,7.95
2024-03-02T16:41:34.010Z,8.00
2024-03-02T16:44:36.236Z,7.98
2024-03-02T16:47:40.041Z,7.93
2024-03-02T16:50:42.362Z,7.98
2024-03-02T16:53:44.620Z,7.99
2024-03-02T16:56:47.029Z,7.99
2024-03-02T16:59:49.270Z,7.96
2024-03-02T17:02:53.543Z,7.96
2024-03-02T17:05:55.853Z,7.97
2024-03-02T17:08:59.347Z,7.93
2024-03-02T17:12:01.809Z,7.96
2024-03-02T17:15:05.526Z,7.97
2024-03-02T17:18:08.010Z,8.01
2024-03-02T17:21:10.257Z,7.89
2024-03-02T17:24:12.461Z,7.94
2024-03-02T17:27:15.282Z,7.97
2024-03-02T17:30:23.641Z,7.87
2024-03-02T17:33:27.728Z,7.83
2024-03-02T17:36:30.080Z,7.88
2024-03-02T17:39:32.434Z,7.84
2024-03-02T17:42:34.740Z,7.76
2024-03-02T17:45:38.883Z,7.84
2024-03-02T17:48:41.414Z,7.84
2024-03-02T17:51:44.589Z,7.89
2024-03-02T17:54:46.829Z,7.90
2024-03-02T17:57:52.165Z,7.83
2024-03-02T18:00:58.264Z,7.81
2024-03-02T18:04:10.347Z,7.76
2024-03-02T18:07:12.955Z,7.73
2024-03-02T18:10:15.326Z,7.83
2024-03-02T18:13:17.791Z,7.85
2024-03-02T18:16:20.369Z,7.80
2024-03-02T18:19:22.818Z,7.81
2024-03-02T18:22:25.146Z,7.84
2024-03-02T18:25:27.656Z,7.85
2024-03-02T18:28:29.895Z,7.84
2024-03-02T18:31:32.078Z,7.81
2024-03-02T18:34:37.095Z,7.77
2024-03-02T18:37:41.128Z,7.76
2024-03-02T18:40:48.093Z,7.80
2024-03-02T18:43:50.307Z,7.76
2024-03-02T18:46:52.808Z,7.78
2024-03-02T18:49:56.469Z,7.78
2024-03-02T18:53:01.387Z,7.76
2024-03-02T18:56:07.354Z,7.85
2024-03-02T18:59:09.585Z,7.87
2024-03-02T19:02:12.881Z,7.85
2024-03-02T19:05:15.207Z,7.80
2024-03-02T19:08:20.444Z,7.84
2024-03-02T19:11:22.748Z,7.82
2024-03-02T19:14:24.941Z,7.85
2024-03-02T19:17:27.268Z,7.83
2024-03-02T19:20:29.679Z,7.90
2024-03-02T19:23:36.585Z,7.82
2024-03-02T19:26:42.531Z,7.80
2024-03-02T19:29:44.808Z,7.75
2024-03-02T19:32:47.091Z,7.74
2024-03-02T19:35:49.307Z,7.70
2024-03-02T19:38:52.000Z,7.77
2024-03-02T19:41:54.853Z,7.74
2024-03-02T19:44:57.120Z,7.81
2024-03-02T19:47:59.420Z,7.78
2024-03-02T19:51:01.684Z,7.76
2024-03-02T19:54:05.652Z,7.78
2024-03-02T19:57:07.801Z,7.76
2024-03-02T20:00:11.019Z,7.75
2024-03-02T20:03:13.274Z,7.76
2024-03-02T20:06:15.516Z,7.83
2024-03-02T20:09:17.770Z,7.79
2024-03-02T20:12:20.107Z,7.77
2024-03-02T20:15:22.527Z,7.71
2024-03-02T20:18:25.679Z,7.65
2024-03-02T20:21:27.985Z,7.64
2024-03-02T20:24:30.223Z,7.74
2024-03-02T20:27:32.472Z,7.67
2024-03-02T20:30:34.675Z,7.68
2024-03-02T20:33:36.898Z,7.64
2024-03-02T20:36:40.492Z,7.64
2024-03-02T20:39:43.760Z,7.66
2024-03-02T20:42:47.263Z,7.68
2024-03-02T20:45:49.449Z,7.63
2024-03-02T20:48:51.744Z,7.56
2024-03-02T20:51:53.960Z,7.52
2024-03-02T20:54:56.173Z,7.50
2024-03-02T20:57:58.521Z,7.55
2024-03-02T21:01:00.738Z,7.57
2024-03-02T21:04:03.950Z,7.56
2024-03-02T21:07:06.238Z,7.63
2024-03-02T21:10:10.171Z,7.56
2024-03-02T21:13:12.515Z,7.55
2024-03-02T21:16:14.772Z,7.55
2024-03-02T21:19:17.837Z,7.49
2024-03-02T21:22:22.834Z,7.48
2024-03-02T21:25:26.109Z,7.47
2024-03-02T21:28:28.702Z,7.49
2024-03-02T21:31:30.887Z,7.49
2024-03-02T21:34:33.212Z,7.57
2024-03-02T21:37:35.409Z,7.58
2024-03-02T21:40:37.664Z,7.57
2024-03-02T21:43:40.769Z,7.53
2024-03-02T21:46:43.101Z,7.51
2024-03-02T21:49:45.455Z,7.59
2024-03-02T21:52:48.022Z,7.56
2024-03-02T21:55:50.207Z,7.58
2024-03-02T21:58:52.366Z,7.47
2024-03-02T22:01:54.714Z,7.51
2024-03-02T22:04:57.239Z,7.47
2024-03-02T22:07:59.481Z,7.48
2024-03-02T22:11:01.762Z,7.47
2024-03-02T22:14:03.941Z,7.54
2024-03-02T22:17:06.258Z,7.49
2024-03-02T22:20:09.000Z,7.48
2024-03-02T22:23:11.200Z,7.53
2024-03-02T22:26:13.362Z,7.50
2024-03-02T22:29:15.567Z,7.52
2024-03-02T22:32:17.871Z,7.50
2024-03-02T22:35:21.932Z,7.52
2024-03-02T22:38:28.222Z,7.46
2024-03-02T22:41:30.618Z,7.45
2024-03-02T22:44:35.339Z,7.51
2024-03-02T22:47:37.644Z,7.48
2024-03-02T22:50:39.784Z,7.46
2024-03-02T22:53:42.572Z,7.43
2024-03-02T22:56:46.233Z,7.42
2024-03-02T22:59:51.554Z,7.43
2024-03-02T23:02:54.528Z,7.36
2024-03-02T23:05:56.849Z,7.32
2024-03-02T23:08:59.278Z,7.22
2024-03-02T23:12:01.619Z,7.25
2024-03-02T23:15:04.064Z,7.25
2024-03-02T23:18:06.443Z,7.30
2024-03-02T23:21:08.679Z,7.38
2024-03-02T23:24:11.150Z,7.32
2024-03-02T23:27:13.350Z,7.36
2024-03-02T23:30:19.252Z,7.38
2024-03-02T23:33:21.762Z,7.34
2024-03-02T23:36:24.023Z,7.32
2024-03-02T23:39:44.780Z,7.31
2024-03-02T23:42:47.124Z,7.27
2024-03-02T23:45:49.345Z,7.28
2024-03-02T23:48:51.717Z,7.34
2024-03-02T23:51:54.983Z,7.25
2024-03-02T23:54:57.241Z,7.28
2024-03-02T23:57:59.619Z,7.28
